createdAt,value
2019-03-11T00:00:52.537Z,996.67
2019-03-11T00:01:52.536Z,996.56
2019-03-11T00:02:52.490Z,996.65
2019-03-11T00:03:52.605Z,996.57
2019-03-11T00:04:52.501Z,996.57
2019-03-11T00:05:52.482Z,996.57
2019-03-11T00:06:52.445Z,996.57
2019-03-11T00:07:52.476Z,996.53
2019-03-11T00:08:52.435Z,996.48
2019-03-11T00:09:52.412Z,996.54
2019-03-11T00:10:52.413Z,996.52
2019-03-11T00:11:52.390Z,996.49
2019-03-11T00:12:52.400Z,996.49
2019-03-11T00:13:52.380Z,996.50
2019-03-11T00:14:52.363Z,996.43
2019-03-11T00:15:52.375Z,996.46
2019-03-11T00:16:52.361Z,996.49
2019-03-11T00:17:52.328Z,996.44
2019-03-11T00:18:52.328Z,996.42
2019-03-11T00:19:52.304Z,996.39
2019-03-11T00:20:52.294Z,996.48
2019-03-11T00:21:52.301Z,996.45
2019-03-11T00:22:52.292Z,996.51
2019-03-11T00:23:52.274Z,996.49
2019-03-11T00:24:52.252Z,996.47
2019-03-11T00:25:52.242Z,996.45
2019-03-11T00:26:52.238Z,996.49
2019-03-11T00:27:52.279Z,996.46
2019-03-11T00:28:52.222Z,996.47
2019-03-11T00:29:52.199Z,996.53
2019-03-11T00:30:52.189Z,996.55
2019-03-11T00:31:52.183Z,996.48
2019-03-11T00:32:52.169Z,996.54
2019-03-11T00:33:52.193Z,996.48
2019-03-11T00:34:52.162Z,996.41
2019-03-11T00:35:52.166Z,996.38
2019-03-11T00:36:52.125Z,996.41
2019-03-11T00:37:52.118Z,996.40
2019-03-11T00:38:52.119Z,996.44
2019-03-11T00:39:52.111Z,996.39
2019-03-11T00:40:52.085Z,996.35
2019-03-11T00:41:52.072Z,996.38
2019-03-11T00:42:52.068Z,996.35
2019-03-11T00:43:52.063Z,996.36
2019-03-11T00:44:52.040Z,996.35
2019-03-11T00:45:52.072Z,996.30
2019-03-11T00:46:52.022Z,996.30
2019-03-11T00:48:01.450Z,996.28
2019-03-11T00:48:53.008Z,996.28
2019-03-11T00:49:51.989Z,996.27
2019-03-11T00:50:51.977Z,996.24
2019-03-11T00:51:51.982Z,996.29
2019-03-11T00:52:51.974Z,996.28
2019-03-11T00:53:51.964Z,996.32
2019-03-11T00:54:51.969Z,996.32
2019-03-11T00:55:51.924Z,996.26
2019-03-11T00:56:51.916Z,996.28
2019-03-11T00:57:51.910Z,996.28
2019-03-11T00:58:51.948Z,996.31
2019-03-11T00:59:51.888Z,996.30
2019-03-11T01:00:51.882Z,996.29
2019-03-11T01:01:51.894Z,996.31
2019-03-11T01:02:51.864Z,996.27
2019-03-11T01:03:51.865Z,996.30
2019-03-11T01:04:51.919Z,996.29
2019-03-11T01:05:51.896Z,996.29
2019-03-11T01:06:51.845Z,996.27
2019-03-11T01:07:51.796Z,996.26
2019-03-11T01:08:51.794Z,996.22
2019-03-11T01:09:51.825Z,996.31
2019-03-11T01:10:51.793Z,996.21
2019-03-11T01:11:51.761Z,996.21
2019-03-11T01:12:51.746Z,996.22
2019-03-11T01:13:51.765Z,996.26
2019-03-11T01:14:51.734Z,996.26
2019-03-11T01:15:51.723Z,996.20
2019-03-11T01:16:51.723Z,996.23
2019-03-11T01:17:51.693Z,996.20
2019-03-11T01:18:51.709Z,996.23
2019-03-11T01:19:51.714Z,996.21
2019-03-11T01:20:51.661Z,996.14
2019-03-11T01:21:51.650Z,996.11
2019-03-11T01:22:51.638Z,996.06
2019-03-11T01:23:51.626Z,996.03
2019-03-11T01:24:51.629Z,996.07
2019-03-11T01:25:51.619Z,996.03
2019-03-11T01:26:51.606Z,995.96
2019-03-11T01:27:51.642Z,995.98
2019-03-11T01:28:51.655Z,995.98
2019-03-11T01:29:51.618Z,995.97
2019-03-11T01:30:51.638Z,995.92
2019-03-11T01:31:51.567Z,995.87
2019-03-11T01:32:51.573Z,995.87
2019-03-11T01:33:51.608Z,995.89
2019-03-11T01:34:51.539Z,995.91
2019-03-11T01:35:51.504Z,995.89
2019-03-11T01:36:51.494Z,995.90
2019-03-11T01:37:51.538Z,995.92
2019-03-11T01:38:51.502Z,995.85
2019-03-11T01:39:51.539Z,995.86
2019-03-11T01:40:51.508Z,995.88
2019-03-11T01:41:51.466Z,995.87
2019-03-11T01:42:51.955Z,995.91
2019-03-11T01:43:51.427Z,995.85
2019-03-11T01:44:51.420Z,995.81
2019-03-11T01:45:51.428Z,995.82
2019-03-11T01:46:51.407Z,995.78
2019-03-11T01:47:51.374Z,995.75
2019-03-11T01:48:51.418Z,995.74
2019-03-11T01:49:51.629Z,995.73
2019-03-11T01:50:51.342Z,995.71
2019-03-11T01:51:51.343Z,995.63
2019-03-11T01:52:51.329Z,995.66
2019-03-11T01:53:51.330Z,995.61
2019-03-11T01:54:51.307Z,995.65
2019-03-11T01:55:51.354Z,995.63
2019-03-11T01:56:51.321Z,995.59
2019-03-11T01:57:51.339Z,995.59
2019-03-11T01:58:51.268Z,995.61
2019-03-11T01:59:51.284Z,995.57
2019-03-11T02:00:51.308Z,995.57
2019-03-11T02:01:51.236Z,995.52
2019-03-11T02:02:51.217Z,995.51
2019-03-11T02:03:51.215Z,995.52
2019-03-11T02:04:51.205Z,995.44
2019-03-11T02:05:51.204Z,995.40
2019-03-11T02:06:51.199Z,995.46
2019-03-11T02:07:51.170Z,995.46
2019-03-11T02:08:51.158Z,995.48
2019-03-11T02:09:51.146Z,995.46
2019-03-11T02:10:51.155Z,995.38
2019-03-11T02:11:51.138Z,995.48
2019-03-11T02:12:51.112Z,995.46
2019-03-11T02:13:51.170Z,995.37
2019-03-11T02:14:51.163Z,995.39
2019-03-11T02:15:51.156Z,995.37
2019-03-11T02:16:51.079Z,995.42
2019-03-11T02:17:51.064Z,995.36
2019-03-11T02:18:51.072Z,995.32
2019-03-11T02:19:51.052Z,995.27
2019-03-11T02:20:51.103Z,995.26
2019-03-11T02:21:51.021Z,995.24
2019-03-11T02:22:51.026Z,995.24
2019-03-11T02:23:51.007Z,995.15
2019-03-11T02:24:50.998Z,995.17
2019-03-11T02:25:51.038Z,995.18
2019-03-11T02:26:50.964Z,995.16
2019-03-11T02:27:50.973Z,995.15
2019-03-11T02:28:50.976Z,995.11
2019-03-11T02:29:50.932Z,995.13
2019-03-11T02:30:50.937Z,995.07
2019-03-11T02:31:50.924Z,995.10
2019-03-11T02:32:50.913Z,995.10
2019-03-11T02:33:50.906Z,995.07
2019-03-11T02:34:50.926Z,995.08
2019-03-11T02:35:50.886Z,995.04
2019-03-11T02:36:50.862Z,995.05
2019-03-11T02:37:50.854Z,994.94
2019-03-11T02:38:50.840Z,995.03
2019-03-11T02:39:50.841Z,995.04
2019-03-11T02:40:50.859Z,994.99
2019-03-11T02:41:50.813Z,994.98
2019-03-11T02:42:50.870Z,994.96
2019-03-11T02:43:50.812Z,994.92
2019-03-11T02:44:50.812Z,994.90
2019-03-11T02:45:50.797Z,994.93
2019-03-11T02:46:50.765Z,994.91
2019-03-11T02:47:50.770Z,994.95
2019-03-11T02:48:50.779Z,994.95
2019-03-11T02:49:50.739Z,994.91
2019-03-11T02:50:50.757Z,994.99
2019-03-11T02:51:50.793Z,994.95
2019-03-11T02:52:50.710Z,994.98
2019-03-11T02:53:50.686Z,995.04
2019-03-11T02:54:50.733Z,995.13
2019-03-11T02:55:51.306Z,995.18
2019-03-11T02:56:50.699Z,995.17
2019-03-11T02:57:50.653Z,995.22
2019-03-11T02:58:50.632Z,995.16
2019-03-11T02:59:50.640Z,995.20
2019-03-11T03:00:50.647Z,995.19
2019-03-11T03:01:50.633Z,995.25
2019-03-11T03:02:50.600Z,995.27
2019-03-11T03:03:50.606Z,995.29
2019-03-11T03:04:50.566Z,995.27
2019-03-11T03:05:50.563Z,995.25
2019-03-11T03:06:50.566Z,995.23
2019-03-11T03:07:50.551Z,995.12
2019-03-11T03:08:50.550Z,995.20
2019-03-11T03:09:50.542Z,995.17
2019-03-11T03:10:50.512Z,995.16
2019-03-11T03:11:50.584Z,995.24
2019-03-11T03:12:50.545Z,995.19
2019-03-11T03:13:50.478Z,995.19
2019-03-11T03:14:50.495Z,995.23
2019-03-11T03:15:50.477Z,995.21
2019-03-11T03:16:50.505Z,995.20
2019-03-11T03:17:50.460Z,995.15
2019-03-11T03:18:50.433Z,995.15
2019-03-11T03:19:50.409Z,995.20
2019-03-11T03:20:50.423Z,995.18
2019-03-11T03:21:50.410Z,995.03
2019-03-11T03:22:50.395Z,995.18
2019-03-11T03:23:50.372Z,995.20
2019-03-11T03:24:50.364Z,995.19
2019-03-11T03:25:50.359Z,995.14
2019-03-11T03:26:50.392Z,995.16
2019-03-11T03:27:50.408Z,995.14
2019-03-11T03:28:50.313Z,995.15
2019-03-11T03:29:50.331Z,995.07
2019-03-11T03:30:50.323Z,994.98
2019-03-11T03:31:50.332Z,995.00
2019-03-11T03:32:50.280Z,994.96
2019-03-11T03:33:50.262Z,994.96
2019-03-11T03:34:50.288Z,994.97
2019-03-11T03:35:50.250Z,995.01
2019-03-11T03:39:24.030Z,995.13
2019-03-11T03:40:24.025Z,995.10
2019-03-11T03:41:24.016Z,995.15
2019-03-11T03:42:24.090Z,994.98
2019-03-11T03:43:24.014Z,994.93
2019-03-11T03:44:24.034Z,994.86
2019-03-11T03:45:23.970Z,994.90
2019-03-11T03:46:23.950Z,994.90
2019-03-11T03:47:23.992Z,994.94
2019-03-11T03:48:23.958Z,994.88
2019-03-11T03:49:23.913Z,994.85
2019-03-11T03:50:23.903Z,994.88
2019-03-11T03:51:23.901Z,994.88
2019-03-11T03:52:23.902Z,994.83
2019-03-11T03:53:23.956Z,994.81
2019-03-11T03:54:23.943Z,994.83
2019-03-11T03:55:23.863Z,994.84
2019-03-11T03:56:23.886Z,994.83
2019-03-11T03:57:23.856Z,994.78
2019-03-11T03:58:23.836Z,994.77
2019-03-11T03:59:23.861Z,994.77
2019-03-11T04:00:23.967Z,994.70
2019-03-11T04:01:23.817Z,994.69
2019-03-11T04:02:23.807Z,994.76
2019-03-11T04:03:23.853Z,994.79
2019-03-11T04:04:23.791Z,994.71
2019-03-11T04:05:23.768Z,994.68
2019-03-11T04:06:24.048Z,994.69
2019-03-11T04:07:23.871Z,994.73
2019-03-11T04:08:24.094Z,994.80
2019-03-11T04:09:23.947Z,994.81
2019-03-11T04:10:23.927Z,994.90
2019-03-11T04:11:23.854Z,994.77
2019-03-11T04:12:23.778Z,994.77
2019-03-11T04:13:23.886Z,994.72
2019-03-11T04:14:23.904Z,994.67
2019-03-11T04:15:23.850Z,994.71
2019-03-11T04:16:23.899Z,994.66
2019-03-11T04:17:23.823Z,994.63
2019-03-11T04:18:23.754Z,994.66
2019-03-11T04:19:23.701Z,994.66
2019-03-11T04:20:23.749Z,994.70
2019-03-11T04:21:23.659Z,994.67
2019-03-11T04:22:23.662Z,994.69
2019-03-11T04:23:23.634Z,994.71
2019-03-11T04:24:23.574Z,994.66
2019-03-11T04:25:23.636Z,994.77
2019-03-11T04:26:23.734Z,994.75
2019-03-11T04:27:23.583Z,994.79
2019-03-11T04:28:23.697Z,994.81
2019-03-11T04:29:23.803Z,994.77
2019-03-11T04:30:23.683Z,994.79
2019-03-11T04:31:23.648Z,994.82
2019-03-11T04:32:23.620Z,994.69
2019-03-11T04:33:23.739Z,994.74
2019-03-11T04:34:23.511Z,994.62
2019-03-11T04:35:23.730Z,994.61
2019-03-11T04:36:23.526Z,994.61
2019-03-11T04:37:23.410Z,994.62
2019-03-11T04:38:23.410Z,994.59
2019-03-11T04:39:23.389Z,994.52
2019-03-11T04:40:23.385Z,994.51
2019-03-11T04:41:23.365Z,994.47
2019-03-11T04:42:23.363Z,994.38
2019-03-11T04:43:23.357Z,994.47
2019-03-11T04:44:23.339Z,994.38
2019-03-11T04:45:23.349Z,994.41
2019-03-11T04:46:23.317Z,994.43
2019-03-11T04:47:23.304Z,994.46
2019-03-11T04:48:23.334Z,994.41
2019-03-11T04:49:23.291Z,994.43
2019-03-11T04:50:23.287Z,994.47
2019-03-11T04:51:23.335Z,994.41
2019-03-11T04:52:23.466Z,994.38
2019-03-11T04:53:23.823Z,994.34
2019-03-11T04:54:23.228Z,994.40
2019-03-11T04:55:23.348Z,994.40
2019-03-11T04:56:23.212Z,994.31
2019-03-11T04:57:23.588Z,994.30
2019-03-11T04:58:23.261Z,994.35
2019-03-11T04:59:23.215Z,994.36
2019-03-11T05:00:23.171Z,994.43
2019-03-11T05:01:23.237Z,994.43
2019-03-11T05:02:23.160Z,994.35
2019-03-11T05:03:23.166Z,994.36
2019-03-11T05:04:23.136Z,994.38
2019-03-11T05:05:23.113Z,994.43
2019-03-11T05:06:23.144Z,994.39
2019-03-11T05:07:23.124Z,994.37
2019-03-11T05:08:23.104Z,994.46
2019-03-11T05:09:23.111Z,994.37
2019-03-11T05:10:23.129Z,994.28
2019-03-11T05:11:23.091Z,994.35
2019-03-11T05:12:23.085Z,994.28
2019-03-11T05:13:23.051Z,994.38
2019-03-11T05:14:23.020Z,994.41
2019-03-11T05:15:23.048Z,994.31
2019-03-11T05:16:23.044Z,994.31
2019-03-11T05:17:22.996Z,994.35
2019-03-11T05:18:22.994Z,994.30
2019-03-11T05:19:23.006Z,994.27
2019-03-11T05:20:23.040Z,994.20
2019-03-11T05:21:22.949Z,994.24
2019-03-11T05:22:22.937Z,994.26
2019-03-11T05:23:22.938Z,994.29
2019-03-11T05:24:22.940Z,994.24
2019-03-11T05:25:23.010Z,994.17
2019-03-11T05:26:22.894Z,994.29
2019-03-11T05:27:22.925Z,994.18
2019-03-11T05:28:22.883Z,994.20
2019-03-11T05:29:22.863Z,994.15
2019-03-11T05:30:22.895Z,994.20
2019-03-11T05:31:22.854Z,994.17
2019-03-11T05:32:22.923Z,994.10
2019-03-11T05:33:22.891Z,994.12
2019-03-11T05:34:22.824Z,994.21
2019-03-11T05:35:22.818Z,994.20
2019-03-11T05:36:22.788Z,994.22
2019-03-11T05:37:22.796Z,994.17
2019-03-11T05:38:22.787Z,994.23
2019-03-11T05:39:22.835Z,994.16
2019-03-11T05:40:22.748Z,994.25
2019-03-11T05:41:22.742Z,994.19
2019-03-11T05:42:22.842Z,994.27
2019-03-11T05:43:22.744Z,994.22
2019-03-11T05:44:22.735Z,994.23
2019-03-11T05:45:22.740Z,994.19
2019-03-11T05:46:22.725Z,994.26
2019-03-11T05:47:22.673Z,994.28
2019-03-11T05:48:22.699Z,994.35
2019-03-11T05:49:22.717Z,994.34
2019-03-11T05:50:22.642Z,994.35
2019-03-11T05:51:31.081Z,994.44
2019-03-11T05:52:23.691Z,994.38
2019-03-11T05:53:22.639Z,994.50
2019-03-11T05:54:22.652Z,994.53
2019-03-11T05:55:22.593Z,994.58
2019-03-11T05:56:22.581Z,994.69
2019-03-11T05:57:22.566Z,994.63
2019-03-11T05:58:22.600Z,994.63
2019-03-11T05:59:22.604Z,994.71
2019-03-11T06:00:22.573Z,994.86
2019-03-11T06:01:22.533Z,994.87
2019-03-11T06:02:22.512Z,994.90
2019-03-11T06:03:22.546Z,994.89
2019-03-11T06:04:22.492Z,994.93
2019-03-11T06:05:22.495Z,994.88
2019-03-11T06:06:22.517Z,994.94
2019-03-11T06:07:22.462Z,995.05
2019-03-11T06:08:22.457Z,995.06
2019-03-11T06:09:22.452Z,995.10
2019-03-11T06:10:22.432Z,995.09
2019-03-11T06:11:22.419Z,995.17
2019-03-11T06:12:22.427Z,995.17
2019-03-11T06:13:22.402Z,995.22
2019-03-11T06:14:22.397Z,995.20
2019-03-11T06:15:22.378Z,995.15
2019-03-11T06:16:22.367Z,995.05
2019-03-11T06:17:22.354Z,995.03
2019-03-11T06:18:22.353Z,994.98
2019-03-11T06:19:22.381Z,995.09
2019-03-11T06:20:22.329Z,995.08
2019-03-11T06:21:22.317Z,995.07
2019-03-11T06:22:22.309Z,995.14
2019-03-11T06:23:22.300Z,995.02
2019-03-11T06:24:22.296Z,995.05
2019-03-11T06:25:22.312Z,995.07
2019-03-11T06:26:22.275Z,995.10
2019-03-11T06:27:22.478Z,995.12
2019-03-11T06:28:22.240Z,995.18
2019-03-11T06:29:30.120Z,995.23
2019-03-11T06:30:23.218Z,995.32
2019-03-11T06:31:22.239Z,995.38
2019-03-11T06:32:22.207Z,995.43
2019-03-11T06:33:22.188Z,995.49
2019-03-11T06:34:22.189Z,995.43
2019-03-11T06:35:22.171Z,995.44
2019-03-11T06:36:22.162Z,995.38
2019-03-11T06:37:22.189Z,995.38
2019-03-11T06:38:22.141Z,995.36
2019-03-11T06:39:22.133Z,995.40
2019-03-11T06:40:22.131Z,995.43
2019-03-11T06:41:22.102Z,995.44
2019-03-11T06:42:22.099Z,995.56
2019-03-11T06:43:22.152Z,995.59
2019-03-11T06:44:22.085Z,995.62
2019-03-11T06:45:22.060Z,995.64
2019-03-11T06:46:22.059Z,995.73
2019-03-11T06:47:22.039Z,995.82
2019-03-11T06:48:22.029Z,995.89
2019-03-11T06:49:22.079Z,995.95
2019-03-11T06:50:22.011Z,996.07
2019-03-11T06:51:21.996Z,996.33
2019-03-11T06:52:21.987Z,996.48
2019-03-11T06:53:21.980Z,996.46
2019-03-11T06:54:21.985Z,996.55
2019-03-11T06:55:21.998Z,996.75
2019-03-11T06:56:21.942Z,996.75
2019-03-11T06:57:21.941Z,996.93
2019-03-11T06:58:21.926Z,996.95
2019-03-11T06:59:21.910Z,996.99
2019-03-11T07:00:21.926Z,996.93
2019-03-11T07:01:21.931Z,996.92
2019-03-11T07:02:21.914Z,997.02
2019-03-11T07:03:21.868Z,996.88
2019-03-11T07:04:21.858Z,997.06
2019-03-11T07:05:21.868Z,996.90
2019-03-11T07:06:21.847Z,996.89
2019-03-11T07:07:21.850Z,996.80
2019-03-11T07:08:21.819Z,996.83
2019-03-11T07:09:21.840Z,996.72
2019-03-11T07:10:21.832Z,996.66
2019-03-11T07:11:21.797Z,996.59
2019-03-11T07:12:22.197Z,996.59
2019-03-11T07:13:21.812Z,996.53
2019-03-11T07:14:21.755Z,996.48
2019-03-11T07:15:21.766Z,996.49
2019-03-11T07:16:21.775Z,996.47
2019-03-11T07:17:21.727Z,996.43
2019-03-11T07:18:21.746Z,996.41
2019-03-11T07:19:21.705Z,996.43
2019-03-11T07:20:21.812Z,996.46
2019-03-11T07:21:21.681Z,996.46
2019-03-11T07:22:21.680Z,996.46
2019-03-11T07:23:21.734Z,996.39
2019-03-11T07:24:21.658Z,996.44
2019-03-11T07:25:21.658Z,996.48
2019-03-11T07:26:21.646Z,996.45
2019-03-11T07:27:21.628Z,996.53
2019-03-11T07:28:21.630Z,996.54
2019-03-11T07:29:21.607Z,996.44
2019-03-11T07:30:21.600Z,996.45
2019-03-11T07:31:21.582Z,996.51
2019-03-11T07:32:21.619Z,996.51
2019-03-11T07:33:21.625Z,996.57
2019-03-11T07:34:21.548Z,996.67
2019-03-11T07:35:21.581Z,996.62
2019-03-11T07:36:21.529Z,996.62
2019-03-11T07:37:21.641Z,996.55
2019-03-11T07:38:21.550Z,996.63
2019-03-11T07:39:21.498Z,996.62
2019-03-11T07:40:29.673Z,996.63
2019-03-11T07:41:22.472Z,996.60
2019-03-11T07:42:21.504Z,996.60
2019-03-11T07:43:21.454Z,996.63
2019-03-11T07:44:21.467Z,996.64
2019-03-11T07:45:21.504Z,996.63
2019-03-11T07:46:21.422Z,996.64
2019-03-11T07:47:21.408Z,996.65
2019-03-11T07:48:21.401Z,996.59
2019-03-11T07:49:21.415Z,996.59
2019-03-11T07:50:21.392Z,996.50
2019-03-11T07:51:21.385Z,996.52
2019-03-11T07:52:21.388Z,996.48
2019-03-11T07:53:21.346Z,996.36
2019-03-11T07:54:21.339Z,996.42
2019-03-11T07:55:21.373Z,996.34
2019-03-11T07:56:21.316Z,996.28
2019-03-11T07:57:21.322Z,996.28
2019-03-11T07:58:21.315Z,996.27
2019-03-11T07:59:21.283Z,996.30
2019-03-11T08:00:21.313Z,996.28
2019-03-11T08:01:21.265Z,996.30
2019-03-11T08:02:21.255Z,996.34
2019-03-11T08:03:21.243Z,996.38
2019-03-11T08:04:21.230Z,996.36
2019-03-11T08:05:21.261Z,996.30
2019-03-11T08:06:21.223Z,996.32
2019-03-11T08:07:21.272Z,996.36
2019-03-11T08:08:21.187Z,996.37
2019-03-11T08:09:21.185Z,996.30
2019-03-11T08:10:21.191Z,996.28
2019-03-11T08:11:21.184Z,996.21
2019-03-11T08:12:21.144Z,996.26
2019-03-11T08:13:21.183Z,996.16
2019-03-11T08:14:21.126Z,996.14
2019-03-11T08:15:21.129Z,996.13
2019-03-11T08:16:21.107Z,996.20
2019-03-11T08:17:21.111Z,996.08
2019-03-11T08:18:21.083Z,996.05
2019-03-11T08:19:21.107Z,995.99
2019-03-11T08:20:21.080Z,996.02
2019-03-11T08:21:21.051Z,996.03
2019-03-11T08:22:21.042Z,996.05
2019-03-11T08:23:21.044Z,995.99
2019-03-11T08:24:21.019Z,996.03
2019-03-11T08:25:21.018Z,995.98
2019-03-11T08:26:21.010Z,996.03
2019-03-11T08:27:20.986Z,996.15
2019-03-11T08:28:20.984Z,996.15
2019-03-11T08:29:20.994Z,996.25
2019-03-11T08:30:21.010Z,996.19
2019-03-11T08:31:20.962Z,996.24
2019-03-11T08:32:20.971Z,996.27
2019-03-11T08:33:20.952Z,996.35
2019-03-11T08:34:20.912Z,996.27
2019-03-11T08:35:20.935Z,996.13
2019-03-11T08:36:20.910Z,996.24
2019-03-11T08:37:20.880Z,996.20
2019-03-11T08:38:20.888Z,996.15
2019-03-11T08:39:20.861Z,996.12
2019-03-11T08:40:20.866Z,996.03
2019-03-11T08:41:20.852Z,996.08
2019-03-11T08:42:20.831Z,996.11
2019-03-11T08:43:20.818Z,996.05
2019-03-11T08:44:20.805Z,996.16
2019-03-11T08:45:20.808Z,996.10
2019-03-11T08:46:20.787Z,996.08
2019-03-11T08:47:20.775Z,996.10
2019-03-11T08:48:20.764Z,996.12
2019-03-11T08:49:20.760Z,996.11
2019-03-11T08:50:20.766Z,996.08
2019-03-11T08:51:20.731Z,996.07
2019-03-11T08:52:20.742Z,996.05
2019-03-11T08:53:20.749Z,996.10
2019-03-11T08:54:20.702Z,996.08
2019-03-11T08:55:20.715Z,996.10
2019-03-11T08:56:20.677Z,996.08
2019-03-11T08:57:20.679Z,996.03
2019-03-11T08:58:20.656Z,995.99
2019-03-11T08:59:20.650Z,996.01
2019-03-11T09:00:20.655Z,995.99
2019-03-11T09:01:20.623Z,996.03
2019-03-11T09:02:20.618Z,996.01
2019-03-11T09:03:20.640Z,996.06
2019-03-11T09:04:20.592Z,996.07
2019-03-11T09:05:20.664Z,996.02
2019-03-11T09:06:20.571Z,995.95
2019-03-11T09:07:20.562Z,995.87
2019-03-11T09:08:20.550Z,995.91
2019-03-11T09:09:20.544Z,995.93
2019-03-11T09:10:20.553Z,995.94
2019-03-11T09:11:20.544Z,995.92
2019-03-11T09:12:20.527Z,995.86
2019-03-11T09:13:20.499Z,995.89
2019-03-11T09:14:20.486Z,995.99
2019-03-11T09:15:20.496Z,996.03
2019-03-11T09:16:20.489Z,996.01
2019-03-11T09:17:20.535Z,996.02
2019-03-11T09:18:20.445Z,995.92
2019-03-11T09:19:20.448Z,995.96
2019-03-11T09:20:20.422Z,996.00
2019-03-11T09:21:20.452Z,995.93
2019-03-11T09:22:20.402Z,995.87
2019-03-11T09:23:20.466Z,995.98
2019-03-11T09:24:20.383Z,995.88
2019-03-11T09:25:20.377Z,995.86
2019-03-11T09:26:20.380Z,995.82
2019-03-11T09:27:20.376Z,995.91
2019-03-11T09:28:20.438Z,996.34
2019-03-11T09:29:20.366Z,996.75
2019-03-11T09:30:20.316Z,996.77
2019-03-11T09:31:20.316Z,996.74
2019-03-11T09:32:20.294Z,996.76
2019-03-11T09:33:20.296Z,996.82
2019-03-11T09:34:20.275Z,997.02
2019-03-11T09:35:20.297Z,996.86
2019-03-11T09:36:20.267Z,996.90
2019-03-11T09:37:20.248Z,997.04
2019-03-11T09:38:20.232Z,996.97
2019-03-11T09:39:20.229Z,997.02
2019-03-11T09:40:20.215Z,997.03
2019-03-11T09:41:20.238Z,996.86
2019-03-11T09:42:20.193Z,997.19
2019-03-11T09:43:20.180Z,997.23
2019-03-11T09:44:20.196Z,997.22
2019-03-11T09:45:20.157Z,997.33
2019-03-11T09:46:20.169Z,997.23
2019-03-11T09:47:20.254Z,997.28
2019-03-11T09:48:20.139Z,997.30
2019-03-11T09:49:20.237Z,997.36
2019-03-11T09:50:20.150Z,997.31
2019-03-11T09:51:20.180Z,997.37
2019-03-11T09:52:20.093Z,997.38
2019-03-11T09:53:20.234Z,997.27
2019-03-11T09:54:20.168Z,997.42
2019-03-11T09:55:20.228Z,997.47
2019-03-11T09:56:20.184Z,997.54
2019-03-11T09:57:20.030Z,997.38
2019-03-11T09:58:20.025Z,997.50
2019-03-11T09:59:20.057Z,997.52
2019-03-11T10:00:20.124Z,997.40
2019-03-11T10:01:20.006Z,997.58
2019-03-11T10:02:20.037Z,997.54
2019-03-11T10:03:19.985Z,997.62
2019-03-11T10:04:20.065Z,997.58
2019-03-11T10:05:19.947Z,997.61
2019-03-11T10:06:19.956Z,997.64
2019-03-11T10:07:20.087Z,997.60
2019-03-11T10:08:19.941Z,997.58
2019-03-11T10:09:19.964Z,997.64
2019-03-11T10:10:19.900Z,997.63
2019-03-11T10:11:19.912Z,997.61
2019-03-11T10:12:19.952Z,997.60
2019-03-11T10:13:19.902Z,997.59
2019-03-11T10:14:19.859Z,997.55
2019-03-11T10:15:19.873Z,997.60
2019-03-11T10:16:19.896Z,997.62
2019-03-11T10:17:19.847Z,997.58
2019-03-11T10:18:19.816Z,997.48
2019-03-11T10:19:19.827Z,997.36
2019-03-11T10:20:19.839Z,997.37
2019-03-11T10:21:19.796Z,997.31
2019-03-11T10:22:19.795Z,997.24
2019-03-11T10:23:19.822Z,997.23
2019-03-11T10:24:19.808Z,997.19
2019-03-11T10:25:19.741Z,997.24
2019-03-11T10:26:19.816Z,997.29
2019-03-11T10:27:19.726Z,997.33
2019-03-11T10:28:19.822Z,997.29
2019-03-11T10:29:19.799Z,997.31
2019-03-11T10:30:19.699Z,997.37
2019-03-11T10:31:20.609Z,997.42
2019-03-11T10:32:20.422Z,997.52
2019-03-11T10:33:19.911Z,997.45
2019-03-11T10:34:34.658Z,997.52
2019-03-11T10:35:31.382Z,997.53
2019-03-11T10:36:22.794Z,997.59
2019-03-11T10:37:19.859Z,997.66
2019-03-11T10:38:20.577Z,997.67
2019-03-11T10:39:20.385Z,997.67
2019-03-11T10:40:19.861Z,997.62
2019-03-11T10:41:20.516Z,997.65
2019-03-11T10:42:19.663Z,997.56
2019-03-11T10:43:21.718Z,997.60
2019-03-11T10:44:20.497Z,997.56
2019-03-11T10:45:30.197Z,997.57
2019-03-11T10:46:20.847Z,997.56
2019-03-11T10:47:19.735Z,997.58
2019-03-11T10:48:19.810Z,997.57
2019-03-11T10:49:19.614Z,997.58
2019-03-11T10:50:20.542Z,997.54
2019-03-11T10:51:19.934Z,997.59
2019-03-11T10:52:19.662Z,997.66
2019-03-11T10:53:19.704Z,997.69
2019-03-11T10:54:20.393Z,997.68
2019-03-11T10:55:20.598Z,997.66
2019-03-11T10:56:20.098Z,997.68
2019-03-11T10:57:20.592Z,997.70
2019-03-11T10:58:19.499Z,997.71
2019-03-11T10:59:19.684Z,997.66
2019-03-11T11:00:19.499Z,997.64
2019-03-11T11:01:19.597Z,997.66
2019-03-11T11:02:19.505Z,997.66
2019-03-11T11:03:19.511Z,997.69
2019-03-11T11:04:19.516Z,997.68
2019-03-11T11:05:19.523Z,997.67
2019-03-11T11:06:20.404Z,997.70
2019-03-11T11:07:19.554Z,997.71
2019-03-11T11:08:19.548Z,997.69
2019-03-11T11:09:19.550Z,997.72
2019-03-11T11:10:19.986Z,997.67
2019-03-11T11:11:19.670Z,997.67
2019-03-11T11:12:19.470Z,997.63
2019-03-11T11:13:19.894Z,997.68
2019-03-11T11:14:19.384Z,997.64
2019-03-11T11:15:19.600Z,997.65
2019-03-11T11:16:30.561Z,997.70
2019-03-11T11:17:19.407Z,997.71
2019-03-11T11:18:21.067Z,997.70
2019-03-11T11:19:19.325Z,997.69
2019-03-11T11:20:19.425Z,997.71
2019-03-11T11:21:19.920Z,997.74
2019-03-11T11:22:19.956Z,997.78
2019-03-11T11:23:19.357Z,997.80
2019-03-11T11:24:19.357Z,997.78
2019-03-11T11:25:20.083Z,997.81
2019-03-11T11:26:21.725Z,997.80
2019-03-11T11:27:19.476Z,997.83
2019-03-11T11:28:19.483Z,997.89
2019-03-11T11:29:19.388Z,997.81
2019-03-11T11:30:19.292Z,997.77
2019-03-11T11:31:20.632Z,997.82
2019-03-11T11:32:21.988Z,997.82
2019-03-11T11:33:20.058Z,997.88
2019-03-11T11:34:19.127Z,997.83
2019-03-11T11:35:19.331Z,997.86
2019-03-11T11:36:19.849Z,997.84
2019-03-11T11:37:22.043Z,997.89
2019-03-11T11:38:19.248Z,997.78
2019-03-11T11:39:19.256Z,997.77
2019-03-11T11:40:19.989Z,997.81
2019-03-11T11:41:19.680Z,997.86
2019-03-11T11:42:19.175Z,997.93
2019-03-11T11:43:19.106Z,997.94
2019-03-11T11:44:19.165Z,997.95
2019-03-11T11:45:19.204Z,998.03
2019-03-11T11:46:19.426Z,998.02
2019-03-11T11:47:19.108Z,998.06
2019-03-11T11:48:20.154Z,998.08
2019-03-11T11:49:19.122Z,998.13
2019-03-11T11:50:19.028Z,998.09
2019-03-11T11:51:19.559Z,998.20
2019-03-11T11:52:19.147Z,998.21
2019-03-11T11:53:19.151Z,998.24
2019-03-11T11:54:20.592Z,998.25
2019-03-11T11:55:19.179Z,998.33
2019-03-11T11:56:19.379Z,998.46
2019-03-11T11:57:18.974Z,998.47
2019-03-11T11:58:21.554Z,998.53
2019-03-11T11:59:21.549Z,998.52
2019-03-11T12:00:19.014Z,998.50
2019-03-11T12:01:20.351Z,998.45
2019-03-11T12:02:19.525Z,998.44
2019-03-11T12:03:20.671Z,998.43
2019-03-11T12:04:19.439Z,998.42
2019-03-11T12:05:19.036Z,998.45
2019-03-11T12:06:18.861Z,998.51
2019-03-11T12:07:19.384Z,998.49
2019-03-11T12:08:18.850Z,998.55
2019-03-11T12:09:20.915Z,998.56
2019-03-11T12:10:18.970Z,998.57
2019-03-11T12:11:18.874Z,998.58
2019-03-11T12:12:19.495Z,998.61
2019-03-11T12:13:18.886Z,998.59
2019-03-11T12:14:18.924Z,998.60
2019-03-11T12:15:18.801Z,998.51
2019-03-11T12:16:18.703Z,998.58
2019-03-11T12:17:19.594Z,998.48
2019-03-11T12:18:18.927Z,998.42
2019-03-11T12:19:20.594Z,998.48
2019-03-11T12:20:18.742Z,998.36
2019-03-11T12:21:19.465Z,998.69
2019-03-11T12:22:19.591Z,998.38
2019-03-11T12:23:18.803Z,998.39
2019-03-11T12:24:18.964Z,998.47
2019-03-11T12:25:18.767Z,998.47
2019-03-11T12:26:18.673Z,998.64
2019-03-11T12:27:18.993Z,998.52
2019-03-11T12:28:18.893Z,998.52
2019-03-11T12:29:18.798Z,998.46
2019-03-11T12:30:18.908Z,998.44
2019-03-11T12:31:19.287Z,998.31